createdAt,value
2017-09-03T00:00:59.067Z,59.3
2017-09-03T00:01:59.088Z,59.2
2017-09-03T00:02:59.108Z,59.01
2017-09-03T00:03:59.130Z,59.39
2017-09-03T00:04:58.821Z,59.48
2017-09-03T00:05:59.168Z,59.39
2017-09-03T00:06:58.862Z,59.48
2017-09-03T00:07:59.408Z,59.58
2017-09-03T00:08:59.232Z,59.3
2017-09-03T00:09:59.243Z,59.39
2017-09-03T00:10:58.948Z,59.58
2017-09-03T00:11:59.290Z,60.06
2017-09-03T00:12:58.988Z,59.68
2017-09-03T00:13:59.007Z,59.77
2017-09-03T00:14:59.034Z,59.87
2017-09-03T00:15:59.412Z,59.68
2017-09-03T00:16:59.398Z,59.87
2017-09-03T00:17:59.420Z,59.87
2017-09-03T00:18:59.437Z,59.97
2017-09-03T00:19:59.462Z,59.87
2017-09-03T00:20:59.154Z,60.16
2017-09-03T00:21:59.498Z,60.54
2017-09-03T00:22:59.518Z,59.97
2017-09-03T00:23:59.537Z,60.54
2017-09-03T00:24:59.559Z,60.16
2017-09-03T00:25:59.580Z,60.16
2017-09-03T00:26:59.598Z,60.25
2017-09-03T00:27:59.621Z,59.84
2017-09-03T00:28:59.321Z,60.06
2017-09-03T00:29:59.337Z,60.03
2017-09-03T00:30:59.356Z,59.84
2017-09-03T00:31:59.400Z,60.41
2017-09-03T00:32:59.723Z,60.8
2017-09-03T00:33:59.742Z,60.99
2017-09-03T00:34:59.762Z,60.32
2017-09-03T00:35:59.458Z,60.32
2017-09-03T00:36:59.480Z,60.61
2017-09-03T00:37:59.499Z,60.32
2017-09-03T00:38:59.840Z,60.13
2017-09-03T00:39:59.863Z,60.51
2017-09-03T00:40:59.879Z,60.32
2017-09-03T00:41:59.901Z,60.13
2017-09-03T00:42:59.598Z,60.32
2017-09-03T00:43:59.619Z,60.41
2017-09-03T00:44:59.638Z,60.32
2017-09-03T00:45:59.981Z,60.32
2017-09-03T00:46:59.678Z,60.41
2017-09-03T00:47:59.701Z,60.41
2017-09-03T00:49:00.046Z,60.51
2017-09-03T00:49:59.741Z,60.8
2017-09-03T00:51:00.081Z,60.7
2017-09-03T00:52:00.102Z,60.89
2017-09-03T00:53:00.127Z,60.8
2017-09-03T00:54:00.141Z,60.7
2017-09-03T00:55:00.276Z,60.32
2017-09-03T00:56:00.275Z,60.32
2017-09-03T00:57:00.302Z,60.8
2017-09-03T00:58:00.301Z,61.28
2017-09-03T00:59:00.301Z,61.08
2017-09-03T01:00:00.309Z,60.61
2017-09-03T01:00:59.958Z,60.7
2017-09-03T01:02:00.436Z,60.89
2017-09-03T01:03:00.454Z,60.61
2017-09-03T01:04:00.020Z,60.41
2017-09-03T01:05:00.040Z,60.32
2017-09-03T01:06:00.059Z,60.8
2017-09-03T01:07:00.492Z,60.89
2017-09-03T01:08:00.499Z,60.8
2017-09-03T01:09:00.507Z,60.61
2017-09-03T01:10:00.525Z,61.28
2017-09-03T01:11:00.526Z,61.28
2017-09-03T01:12:00.582Z,61.47
2017-09-03T01:13:00.587Z,61.47
2017-09-03T01:14:00.592Z,61.28
2017-09-03T01:15:00.601Z,61.28
2017-09-03T01:16:00.600Z,61.28
2017-09-03T01:17:00.314Z,61.18
2017-09-03T01:18:00.627Z,61.28
2017-09-03T01:19:00.327Z,61.37
2017-09-03T01:20:00.664Z,61.28
2017-09-03T01:21:00.683Z,61.08
2017-09-03T01:22:00.705Z,60.7
2017-09-03T01:23:00.723Z,61.18
2017-09-03T01:24:00.788Z,60.77
2017-09-03T01:25:00.762Z,60.99
2017-09-03T01:26:00.787Z,60.77
2017-09-03T01:27:00.803Z,60.86
2017-09-03T01:28:00.825Z,61.15
2017-09-03T01:29:00.841Z,61.54
2017-09-03T01:30:00.594Z,61.15
2017-09-03T01:31:00.879Z,61.25
2017-09-03T01:32:00.911Z,61.63
2017-09-03T01:33:00.919Z,61.63
2017-09-03T01:34:00.947Z,61.44
2017-09-03T01:35:00.644Z,61.54
2017-09-03T01:36:00.984Z,60.96
2017-09-03T01:37:00.678Z,61.15
2017-09-03T01:38:01.021Z,61.44
2017-09-03T01:39:01.040Z,61.15
2017-09-03T01:40:01.061Z,61.54
2017-09-03T01:41:01.080Z,61.44
2017-09-03T01:42:01.110Z,61.15
2017-09-03T01:43:01.120Z,61.25
2017-09-03T01:44:00.817Z,61.34
2017-09-03T01:45:00.837Z,60.96
2017-09-03T01:46:00.863Z,61.15
2017-09-03T01:47:00.873Z,61.05
2017-09-03T01:48:00.893Z,61.44
2017-09-03T01:49:01.235Z,61.44
2017-09-03T01:50:01.259Z,61.34
2017-09-03T01:51:01.285Z,61.91
2017-09-03T01:52:00.976Z,61.54
2017-09-03T01:53:01.019Z,61.82
2017-09-03T01:54:01.339Z,62.01
2017-09-03T01:55:01.031Z,62.11
2017-09-03T01:56:01.382Z,61.91
2017-09-03T01:57:01.397Z,61.54
2017-09-03T01:58:01.413Z,61.72
2017-09-03T01:59:01.435Z,61.91
2017-09-03T02:00:01.453Z,61.82
2017-09-03T02:01:01.476Z,61.72
2017-09-03T02:02:01.492Z,61.72
2017-09-03T02:03:01.513Z,62.01
2017-09-03T02:04:01.535Z,61.82
2017-09-03T02:05:01.549Z,62.11
2017-09-03T02:06:01.578Z,62.11
2017-09-03T02:07:01.590Z,61.72
2017-09-03T02:08:01.609Z,62.11
2017-09-03T02:09:01.307Z,61.91
2017-09-03T02:10:01.654Z,61.72
2017-09-03T02:11:01.668Z,62.11
2017-09-03T02:12:01.688Z,62.11
2017-09-03T02:13:01.707Z,62.11
2017-09-03T02:14:01.729Z,62.46
2017-09-03T02:15:01.750Z,62.3
2017-09-03T02:16:01.446Z,62.2
2017-09-03T02:17:01.461Z,62.3
2017-09-03T02:18:01.806Z,62.11
2017-09-03T02:19:01.830Z,61.91
2017-09-03T02:20:01.850Z,62.01
2017-09-03T02:21:01.867Z,62.3
2017-09-03T02:22:01.562Z,62.3
2017-09-03T02:23:01.582Z,62.46
2017-09-03T02:24:01.925Z,63.13
2017-09-03T02:25:01.942Z,62.65
2017-09-03T02:26:01.640Z,62.74
2017-09-03T02:27:01.981Z,63.03
2017-09-03T02:28:01.677Z,62.84
2017-09-03T02:29:02.021Z,62.74
2017-09-03T02:30:02.051Z,62.74
2017-09-03T02:31:01.735Z,62.74
2017-09-03T02:32:02.089Z,62.65
2017-09-03T02:33:01.778Z,62.74
2017-09-03T02:34:01.796Z,62.74
2017-09-03T02:35:01.824Z,62.55
2017-09-03T02:36:01.914Z,62.77
2017-09-03T02:37:01.854Z,62.74
2017-09-03T02:38:01.878Z,63.06
2017-09-03T02:39:02.276Z,62.65
2017-09-03T02:40:01.915Z,62.74
2017-09-03T02:41:01.932Z,62.84
2017-09-03T02:42:02.303Z,63.03
2017-09-03T02:43:01.970Z,62.94
2017-09-03T02:44:02.320Z,62.94
2017-09-03T02:45:02.011Z,62.55
2017-09-03T02:46:02.460Z,62.55
2017-09-03T02:47:02.437Z,62.46
2017-09-03T02:48:02.069Z,62.65
2017-09-03T02:49:02.088Z,63.03
2017-09-03T02:50:02.106Z,63.23
2017-09-03T02:51:02.572Z,62.37
2017-09-03T02:52:02.561Z,62.46
2017-09-03T02:53:02.579Z,62.84
2017-09-03T02:54:02.277Z,62.74
2017-09-03T02:55:02.421Z,62.84
2017-09-03T02:56:02.766Z,62.94
2017-09-03T02:57:02.776Z,63.03
2017-09-03T02:58:02.798Z,63.23
2017-09-03T02:59:02.480Z,63.03
2017-09-03T03:00:02.749Z,63.13
2017-09-03T03:01:02.456Z,63.03
2017-09-03T03:02:02.469Z,63.03
2017-09-03T03:03:02.477Z,63.13
2017-09-03T03:04:02.537Z,63.13
2017-09-03T03:05:02.859Z,63.23
2017-09-03T03:06:02.642Z,63.13
2017-09-03T03:07:02.541Z,63.13
2017-09-03T03:08:02.657Z,63.32
2017-09-03T03:09:02.880Z,63.13
2017-09-03T03:10:02.903Z,63.13
2017-09-03T03:11:02.592Z,62.84
2017-09-03T03:12:02.616Z,63.42
2017-09-03T03:13:02.961Z,63.13
2017-09-03T03:14:02.990Z,63.51
2017-09-03T03:15:02.618Z,63.32
2017-09-03T03:16:02.979Z,63.6
2017-09-03T03:17:02.671Z,63.32
2017-09-03T03:18:02.978Z,63.6
2017-09-03T03:19:02.672Z,63.13
2017-09-03T03:20:03.022Z,63.42
2017-09-03T03:21:03.031Z,63.51
2017-09-03T03:22:02.734Z,63.51
2017-09-03T03:23:03.180Z,63.51
2017-09-03T03:24:03.089Z,63.42
2017-09-03T03:25:02.786Z,63.6
2017-09-03T03:26:02.818Z,63.51
2017-09-03T03:27:02.823Z,63.51
2017-09-03T03:28:03.176Z,64.09
2017-09-03T03:29:02.863Z,63.89
2017-09-03T03:30:03.210Z,63.89
2017-09-03T03:31:03.226Z,64.09
2017-09-03T03:32:03.242Z,63.89
2017-09-03T03:33:02.941Z,63.89
2017-09-03T03:34:03.287Z,63.89
2017-09-03T03:35:03.301Z,64.09
2017-09-03T03:36:03.325Z,64.09
2017-09-03T03:37:03.343Z,63.8
2017-09-03T03:38:03.044Z,63.8
2017-09-03T03:39:03.378Z,63.7
2017-09-03T03:40:03.397Z,63.7
2017-09-03T03:41:03.415Z,63.89
2017-09-03T03:42:03.446Z,63.6
2017-09-03T03:43:03.135Z,63.89
2017-09-03T03:44:03.475Z,63.99
2017-09-03T03:45:03.492Z,63.6
2017-09-03T03:46:03.514Z,63.8
2017-09-03T03:47:03.529Z,63.89
2017-09-03T03:48:03.550Z,63.6
2017-09-03T03:49:03.568Z,63.89
2017-09-03T03:50:03.607Z,63.8
2017-09-03T03:51:03.285Z,63.29
2017-09-03T03:52:03.640Z,64.18
2017-09-03T03:53:03.648Z,63.86
2017-09-03T03:54:03.341Z,63.86
2017-09-03T03:55:03.361Z,63.86
2017-09-03T03:56:03.719Z,63.86
2017-09-03T03:57:03.724Z,63.51
2017-09-03T03:58:03.464Z,63.6
2017-09-03T03:59:03.764Z,63.57
2017-09-03T04:00:03.986Z,63.96
2017-09-03T04:01:03.802Z,64.15
2017-09-03T04:02:03.494Z,63.86
2017-09-03T04:03:03.838Z,64.05
2017-09-03T04:04:03.858Z,63.76
2017-09-03T04:05:03.555Z,63.67
2017-09-03T04:06:03.588Z,63.67
2017-09-03T04:07:03.590Z,63.76
2017-09-03T04:08:03.938Z,63.86
2017-09-03T04:09:03.628Z,63.86
2017-09-03T04:10:03.648Z,63.76
2017-09-03T04:11:03.991Z,63.67
2017-09-03T04:12:04.021Z,63.86
2017-09-03T04:13:04.033Z,63.96
2017-09-03T04:14:03.726Z,64.34
2017-09-03T04:15:04.066Z,64.05
2017-09-03T04:16:04.088Z,64.05
2017-09-03T04:17:03.782Z,64.15
2017-09-03T04:18:04.129Z,64.05
2017-09-03T04:19:03.820Z,64.05
2017-09-03T04:20:03.840Z,64.15
2017-09-03T04:21:04.059Z,64.05
2017-09-03T04:22:04.200Z,64.15
2017-09-03T04:23:04.221Z,64.25
2017-09-03T04:24:04.240Z,64.25
2017-09-03T04:25:04.263Z,64.25
2017-09-03T04:26:03.954Z,64.15
2017-09-03T04:27:03.974Z,64.25
2017-09-03T04:28:03.993Z,64.43
2017-09-03T04:29:04.337Z,64.25
2017-09-03T04:30:04.361Z,64.34
2017-09-03T04:31:04.376Z,64.43
2017-09-03T04:32:04.395Z,64.25
2017-09-03T04:33:04.095Z,64.53
2017-09-03T04:34:04.443Z,64.25
2017-09-03T04:35:04.133Z,64.25
2017-09-03T04:36:04.146Z,64.25
2017-09-03T04:37:04.488Z,64.34
2017-09-03T04:38:04.507Z,64.34
2017-09-03T04:39:04.528Z,64.15
2017-09-03T04:40:04.546Z,64.43
2017-09-03T04:41:04.240Z,64.43
2017-09-03T04:42:04.586Z,64.53
2017-09-03T04:43:04.605Z,64.53
2017-09-03T04:44:04.638Z,64.15
2017-09-03T04:45:04.317Z,64.72
2017-09-03T04:46:04.709Z,64.91
2017-09-03T04:47:04.696Z,64.82
2017-09-03T04:48:04.373Z,64.72
2017-09-03T04:49:04.718Z,64.72
2017-09-03T04:50:04.738Z,64.72
2017-09-03T04:51:04.432Z,64.82
2017-09-03T04:52:04.773Z,64.91
2017-09-03T04:53:04.791Z,64.72
2017-09-03T04:54:04.811Z,64.43
2017-09-03T04:55:04.832Z,64.34
2017-09-03T04:56:04.528Z,64.43
2017-09-03T04:57:04.867Z,64.25
2017-09-03T04:58:04.890Z,64.34
2017-09-03T04:59:04.583Z,64.25
2017-09-03T05:00:04.923Z,64.25
2017-09-03T05:01:04.943Z,64.43
2017-09-03T05:02:04.642Z,65.01
2017-09-03T05:03:04.992Z,64.82
2017-09-03T05:04:04.879Z,64.91
2017-09-03T05:05:05.021Z,64.15
2017-09-03T05:06:05.042Z,64.43
2017-09-03T05:07:04.736Z,64.53
2017-09-03T05:08:04.752Z,64.82
2017-09-03T05:09:04.770Z,65.11
2017-09-03T05:10:05.117Z,64.82
2017-09-03T05:11:04.810Z,65.11
2017-09-03T05:12:05.155Z,65.01
2017-09-03T05:13:04.847Z,64.82
2017-09-03T05:14:04.868Z,64.72
2017-09-03T05:15:05.212Z,64.72
2017-09-03T05:16:04.903Z,64.72
2017-09-03T05:17:05.253Z,64.53
2017-09-03T05:18:05.263Z,64.72
2017-09-03T05:19:05.287Z,64.62
2017-09-03T05:20:04.982Z,64.82
2017-09-03T05:21:04.999Z,64.82
2017-09-03T05:22:05.345Z,64.82
2017-09-03T05:23:05.365Z,64.82
2017-09-03T05:24:05.385Z,64.91
2017-09-03T05:25:05.396Z,64.53
2017-09-03T05:26:05.416Z,64.53
2017-09-03T05:27:05.434Z,64.62
2017-09-03T05:28:05.129Z,64.62
2017-09-03T05:29:05.473Z,64.91
2017-09-03T05:30:05.498Z,64.62
2017-09-03T05:31:05.512Z,64.62
2017-09-03T05:32:05.532Z,65.01
2017-09-03T05:33:05.226Z,65.11
2017-09-03T05:34:05.569Z,65.2
2017-09-03T05:35:05.585Z,65.11
2017-09-03T05:36:05.283Z,65.01
2017-09-03T05:37:05.299Z,64.72
2017-09-03T05:38:05.318Z,65.3
2017-09-03T05:39:05.661Z,64.43
2017-09-03T05:40:05.688Z,64.43
2017-09-03T05:41:05.378Z,65.58
2017-09-03T05:42:05.756Z,65.68
2017-09-03T05:43:05.413Z,65.68
2017-09-03T05:44:05.634Z,65.68
2017-09-03T05:45:05.774Z,65.58
2017-09-03T05:46:05.468Z,65.39
2017-09-03T05:47:05.490Z,65.58
2017-09-03T05:48:05.830Z,64.72
2017-09-03T05:49:05.526Z,65.48
2017-09-03T05:50:05.548Z,65.39
2017-09-03T05:51:05.938Z,65.39
2017-09-03T05:52:05.917Z,65.39
2017-09-03T05:53:05.601Z,65.2
2017-09-03T05:54:05.620Z,65.11
2017-09-03T05:55:05.962Z,65.39
2017-09-03T05:56:05.659Z,65.3
2017-09-03T05:57:05.998Z,64.91
2017-09-03T05:58:06.021Z,65.3
2017-09-03T05:59:06.035Z,65.11
2017-09-03T06:00:06.056Z,65.2
2017-09-03T06:01:05.751Z,65.3
2017-09-03T06:02:05.771Z,65.2
2017-09-03T06:03:06.115Z,65.48
2017-09-03T06:04:05.809Z,65.58
2017-09-03T06:05:06.153Z,65.97
2017-09-03T06:06:06.172Z,65.3
2017-09-03T06:07:05.864Z,65.3
2017-09-03T06:08:05.885Z,65.3
2017-09-03T06:09:06.226Z,65.3
2017-09-03T06:10:05.921Z,65.48
2017-09-03T06:11:06.265Z,65.39
2017-09-03T06:12:06.284Z,65.77
2017-09-03T06:13:05.977Z,66.06
2017-09-03T06:14:06.322Z,66.25
2017-09-03T06:15:06.342Z,65.68
2017-09-03T06:16:06.037Z,65.87
2017-09-03T06:17:06.377Z,66.06
2017-09-03T06:18:06.396Z,66.25
2017-09-03T06:19:06.416Z,65.87
2017-09-03T06:20:06.432Z,65.97
2017-09-03T06:21:06.451Z,65.77
2017-09-03T06:22:06.471Z,65.77
2017-09-03T06:23:06.492Z,65.87
2017-09-03T06:24:06.188Z,65.77
2017-09-03T06:25:06.528Z,65.87
2017-09-03T06:26:06.549Z,66.25
2017-09-03T06:27:06.570Z,65.58
2017-09-03T06:28:06.262Z,66.25
2017-09-03T06:29:06.610Z,66.35
2017-09-03T06:30:06.624Z,66.25
2017-09-03T06:31:06.638Z,66.25
2017-09-03T06:32:06.660Z,66.19
2017-09-03T06:33:06.679Z,66.28
2017-09-03T06:34:06.376Z,66.28
2017-09-03T06:35:06.715Z,65.71
2017-09-03T06:36:06.735Z,65.9
2017-09-03T06:37:06.755Z,66
2017-09-03T06:38:06.452Z,66.38
2017-09-03T06:39:06.791Z,66.19
2017-09-03T06:40:06.811Z,65.81
2017-09-03T06:41:06.830Z,66.47
2017-09-03T06:42:06.849Z,66.67
2017-09-03T06:43:06.545Z,66.96
2017-09-03T06:44:06.563Z,66.86
2017-09-03T06:45:06.581Z,67.14
2017-09-03T06:46:06.599Z,66.47
2017-09-03T06:47:06.948Z,66.67
2017-09-03T06:48:06.636Z,66.86
2017-09-03T06:49:07.001Z,66.28
2017-09-03T06:50:07.026Z,66.32
2017-09-03T06:51:06.695Z,66.86
2017-09-03T06:52:07.039Z,67.05
2017-09-03T06:53:07.055Z,66.67
2017-09-03T06:54:07.077Z,66.51
2017-09-03T06:55:07.100Z,66.61
2017-09-03T06:56:07.127Z,66.8
2017-09-03T06:57:07.187Z,66.89
2017-09-03T06:58:07.156Z,66.7
2017-09-03T06:59:06.846Z,66.51
2017-09-03T07:00:06.865Z,66.8
2017-09-03T07:01:07.207Z,66.8
2017-09-03T07:02:07.224Z,66.89
2017-09-03T07:03:06.922Z,66.89
2017-09-03T07:04:07.265Z,66.22
2017-09-03T07:05:06.958Z,66.8
2017-09-03T07:06:06.979Z,66.51
2017-09-03T07:07:07.322Z,66.99
2017-09-03T07:08:07.020Z,66.61
2017-09-03T07:09:07.359Z,66.41
2017-09-03T07:10:07.057Z,66.8
2017-09-03T07:11:07.401Z,66.8
2017-09-03T07:12:07.092Z,66.25
2017-09-03T07:13:07.112Z,67.08
2017-09-03T07:14:07.130Z,67.11
2017-09-03T07:15:07.150Z,66.83
2017-09-03T07:16:07.169Z,66.93
2017-09-03T07:17:07.514Z,66.74
2017-09-03T07:18:07.209Z,66.35
2017-09-03T07:19:07.226Z,66.64
2017-09-03T07:20:07.568Z,66.45
2017-09-03T07:21:07.267Z,66.16
2017-09-03T07:22:07.285Z,66.45
2017-09-03T07:23:07.306Z,66.45
2017-09-03T07:24:07.322Z,66.06
2017-09-03T07:25:07.666Z,65.97
2017-09-03T07:26:07.686Z,66.35
2017-09-03T07:27:07.381Z,66.25
2017-09-03T07:28:07.400Z,66.25
2017-09-03T07:29:07.745Z,65.81
2017-09-03T07:30:07.761Z,66.19
2017-09-03T07:31:07.784Z,65.88
2017-09-03T07:32:07.477Z,65.62
2017-09-03T07:33:07.496Z,66
2017-09-03T07:34:07.842Z,65.52
2017-09-03T07:35:07.534Z,66.19
2017-09-03T07:36:07.558Z,66.19
2017-09-03T07:37:07.897Z,66.19
2017-09-03T07:38:07.923Z,65.91
2017-09-03T07:39:07.612Z,65.91
2017-09-03T07:40:07.635Z,65.62
2017-09-03T07:41:07.972Z,65.71
2017-09-03T07:42:07.671Z,65.26
2017-09-03T07:43:08.014Z,65.46
2017-09-03T07:44:07.710Z,65.55
2017-09-03T07:45:07.730Z,64.98
2017-09-03T07:46:08.070Z,65.26
2017-09-03T07:47:07.768Z,65.75
2017-09-03T07:48:08.111Z,64.98
2017-09-03T07:49:08.130Z,64.98
2017-09-03T07:50:07.827Z,64.89
2017-09-03T07:51:07.847Z,64.89
2017-09-03T07:52:08.188Z,65.26
2017-09-03T07:53:07.885Z,64.69
2017-09-03T07:54:08.232Z,64.69
2017-09-03T07:55:08.250Z,64.89
2017-09-03T07:56:08.268Z,64.82
2017-09-03T07:57:08.289Z,65.01
2017-09-03T07:58:08.308Z,65.01
2017-09-03T07:59:08.328Z,64.53
2017-09-03T08:00:08.025Z,64.72
2017-09-03T08:01:08.366Z,64.92
2017-09-03T08:02:08.062Z,64.82
2017-09-03T08:03:08.404Z,64.43
2017-09-03T08:04:08.103Z,64.43
2017-09-03T08:05:08.122Z,64.56
2017-09-03T08:06:08.464Z,64.18
2017-09-03T08:07:08.483Z,64.47
2017-09-03T08:08:08.506Z,64.56
2017-09-03T08:09:08.524Z,64.56
2017-09-03T08:10:08.220Z,63.79
2017-09-03T08:11:08.241Z,63.6
2017-09-03T08:12:08.262Z,64.28
2017-09-03T08:13:08.282Z,64.47
2017-09-03T08:14:08.624Z,63.51
2017-09-03T08:15:08.642Z,63.79
2017-09-03T08:16:08.665Z,63.51
2017-09-03T08:17:08.684Z,63.64
2017-09-03T08:18:08.379Z,63.73
2017-09-03T08:19:08.723Z,63.45
2017-09-03T08:20:08.419Z,63.45
2017-09-03T08:21:08.761Z,63.25
2017-09-03T08:22:08.786Z,63.25
2017-09-03T08:23:08.802Z,63.16
2017-09-03T08:24:08.823Z,62.77
2017-09-03T08:25:08.842Z,62.58
2017-09-03T08:26:08.863Z,62.48
2017-09-03T08:27:08.564Z,62.1
2017-09-03T08:28:08.581Z,62.32
2017-09-03T08:29:08.598Z,62.04
2017-09-03T08:30:08.943Z,62.42
2017-09-03T08:31:08.968Z,62.61
2017-09-03T08:32:08.985Z,62.13
2017-09-03T08:33:09.010Z,62.23
2017-09-03T08:34:09.023Z,62.32
2017-09-03T08:35:08.721Z,62.04
2017-09-03T08:36:08.741Z,62.07
2017-09-03T08:37:09.085Z,61.87
2017-09-03T08:38:09.109Z,61.65
2017-09-03T08:39:08.803Z,61.49
2017-09-03T08:40:08.823Z,61.87
2017-09-03T08:41:09.170Z,61.49
2017-09-03T08:42:08.865Z,61.4
2017-09-03T08:43:08.886Z,61.87
2017-09-03T08:44:08.904Z,61.87
2017-09-03T08:45:08.926Z,61.78
2017-09-03T08:46:08.945Z,61.49
2017-09-03T08:47:08.968Z,60.91
2017-09-03T08:48:08.988Z,60.82
2017-09-03T08:49:09.007Z,61.2
2017-09-03T08:50:09.355Z,60.82
2017-09-03T08:51:09.378Z,60.53
2017-09-03T08:52:09.391Z,61.49
2017-09-03T08:53:09.412Z,60.66
2017-09-03T08:54:09.110Z,60.85
2017-09-03T08:55:09.454Z,60.46
2017-09-03T08:56:09.496Z,60.85
2017-09-03T08:57:09.174Z,60.75
2017-09-03T08:58:09.523Z,60.75
2017-09-03T08:59:09.538Z,60.75
2017-09-03T09:00:09.235Z,60.75
2017-09-03T09:01:09.583Z,60.27
2017-09-03T09:02:09.276Z,59.99
2017-09-03T09:03:09.622Z,60.08
2017-09-03T09:04:09.642Z,59.79
2017-09-03T09:05:09.666Z,59.6
2017-09-03T09:06:09.687Z,59.72
2017-09-03T09:07:09.381Z,59.79
2017-09-03T09:08:09.405Z,59.53
2017-09-03T09:09:09.422Z,59.63
2017-09-03T09:10:09.765Z,59.34
2017-09-03T09:11:09.790Z,59.92
2017-09-03T09:12:09.487Z,59.24
2017-09-03T09:13:09.831Z,59.53
2017-09-03T09:14:09.859Z,59.44
2017-09-03T09:15:09.554Z,59.15
2017-09-03T09:16:09.572Z,58.89
2017-09-03T09:17:09.593Z,58.89
2017-09-03T09:18:09.613Z,58.31
2017-09-03T09:19:09.958Z,58.12
2017-09-03T09:20:09.655Z,58.6
2017-09-03T09:21:09.678Z,58.5
2017-09-03T09:22:09.700Z,58.5
2017-09-03T09:23:10.043Z,58.31
2017-09-03T09:24:10.062Z,58.12
2017-09-03T09:25:09.762Z,57.83
2017-09-03T09:26:10.106Z,57.57
2017-09-03T09:27:10.133Z,57.47
2017-09-03T09:28:10.153Z,57.54
2017-09-03T09:29:09.850Z,57.18
2017-09-03T09:30:10.196Z,57.18
2017-09-03T09:31:09.893Z,57.76
2017-09-03T09:32:10.235Z,57.47
2017-09-03T09:33:10.261Z,56.6
2017-09-03T09:34:09.958Z,57.02
2017-09-03T09:35:10.307Z,56.63
2017-09-03T09:36:10.322Z,55.96
2017-09-03T09:37:10.349Z,56.25
2017-09-03T09:38:10.366Z,55.96
2017-09-03T09:39:10.083Z,56.15
2017-09-03T09:40:10.413Z,55.77
2017-09-03T09:41:10.433Z,55.99
2017-09-03T09:42:10.458Z,55.29
2017-09-03T09:43:10.475Z,54.64
2017-09-03T09:44:10.173Z,54.74
2017-09-03T09:45:10.519Z,54.13
2017-09-03T09:46:10.217Z,54.16
2017-09-03T09:47:10.677Z,54.83
2017-09-03T09:48:10.675Z,54.64
2017-09-03T09:49:10.281Z,54.74
2017-09-03T09:50:10.304Z,55.22
2017-09-03T09:51:10.701Z,54.54
2017-09-03T09:52:10.349Z,54.06
2017-09-03T09:53:10.370Z,53.7
2017-09-03T09:54:10.838Z,54.28
2017-09-03T09:55:10.419Z,54.47
2017-09-03T09:56:10.863Z,53.7
2017-09-03T09:57:10.460Z,53.13
2017-09-03T09:58:11.060Z,53.41
2017-09-03T09:59:10.504Z,53.8
2017-09-03T10:00:10.932Z,53.22
2017-09-03T10:01:10.941Z,53.03
2017-09-03T10:02:10.667Z,53.03
2017-09-03T10:03:11.017Z,52.83
2017-09-03T10:04:10.673Z,53.22
2017-09-03T10:05:10.966Z,52.93
2017-09-03T10:06:10.982Z,52.73
2017-09-03T10:07:10.804Z,53.03
2017-09-03T10:08:11.030Z,53.03
2017-09-03T10:09:10.833Z,52.95
2017-09-03T10:10:10.829Z,53.05
2017-09-03T10:11:10.828Z,52.57
2017-09-03T10:12:11.122Z,52.67
2017-09-03T10:13:11.142Z,52.67
2017-09-03T10:14:10.937Z,52.47
2017-09-03T10:15:10.946Z,52.37
2017-09-03T10:16:11.207Z,51.8
2017-09-03T10:17:10.970Z,51.99
2017-09-03T10:18:11.265Z,51.32
2017-09-03T10:19:11.279Z,51.25
2017-09-03T10:20:11.301Z,50.96
2017-09-03T10:21:11.000Z,50.96
2017-09-03T10:22:11.021Z,50.47
2017-09-03T10:23:11.371Z,50.28
2017-09-03T10:24:11.390Z,49.9
2017-09-03T10:25:11.415Z,50.38
2017-09-03T10:26:11.116Z,49.6
2017-09-03T10:27:11.139Z,49.8
2017-09-03T10:28:11.482Z,49.63
2017-09-03T10:29:11.506Z,49.34
2017-09-03T10:30:11.536Z,49.24
2017-09-03T10:31:11.232Z,49.05
2017-09-03T10:32:11.251Z,48.95
2017-09-03T10:33:11.276Z,48.95
2017-09-03T10:34:11.624Z,48.88
2017-09-03T10:35:11.650Z,48.97
2017-09-03T10:36:11.669Z,48.69
2017-09-03T10:37:11.692Z,48.59
2017-09-03T10:38:11.393Z,48.39
2017-09-03T10:39:11.741Z,48.39
2017-09-03T10:40:11.442Z,48.23
2017-09-03T10:41:11.463Z,47.84
2017-09-03T10:42:11.809Z,47.55
2017-09-03T10:43:11.832Z,47.26
2017-09-03T10:44:11.854Z,46.88
2017-09-03T10:45:11.556Z,46.97
2017-09-03T10:46:11.579Z,46.58
2017-09-03T10:47:11.606Z,46.2
2017-09-03T10:48:11.951Z,46
2017-09-03T10:49:11.650Z,46
2017-09-03T10:50:11.998Z,45.93
2017-09-03T10:51:11.697Z,46.22
2017-09-03T10:52:12.046Z,46.12
2017-09-03T10:53:12.078Z,46.12
2017-09-03T10:54:12.094Z,46.03
2017-09-03T10:55:12.119Z,46.32
2017-09-03T10:56:12.143Z,46.32
2017-09-03T10:57:12.163Z,46.05
2017-09-03T10:58:12.206Z,45.64
2017-09-03T10:59:12.211Z,45.66
2017-09-03T11:00:11.913Z,45.28
2017-09-03T11:01:11.940Z,44.79
2017-09-03T11:02:11.959Z,44.4
2017-09-03T11:03:12.188Z,44.12
2017-09-03T11:04:12.008Z,43.82
2017-09-03T11:05:12.356Z,43.75
2017-09-03T11:06:12.383Z,43.85
2017-09-03T11:07:12.416Z,43.55
2017-09-03T11:08:12.428Z,42.88
2017-09-03T11:09:12.455Z,43.27
2017-09-03T11:10:12.480Z,42.8
2017-09-03T11:11:12.177Z,42.13
2017-09-03T11:12:12.530Z,42.41
2017-09-03T11:13:12.673Z,42.13
2017-09-03T11:14:12.673Z,41.93
2017-09-03T11:15:12.670Z,41.93
2017-09-03T11:16:12.708Z,41.16
2017-09-03T11:17:12.727Z,41.35
2017-09-03T11:18:12.674Z,41.35
2017-09-03T11:19:12.376Z,41.45
2017-09-03T11:20:12.834Z,40.96
2017-09-03T11:21:12.855Z,41.25
2017-09-03T11:22:12.873Z,41.17
2017-09-03T11:23:12.861Z,40.77
2017-09-03T11:24:12.821Z,40.96
2017-09-03T11:25:12.642Z,41.17
2017-09-03T11:26:12.957Z,40.89
2017-09-03T11:27:13.117Z,40.4
2017-09-03T11:28:12.822Z,40.5
2017-09-03T11:29:13.158Z,40.01
2017-09-03T11:30:12.867Z,40.11
2017-09-03T11:31:13.107Z,40.01
2017-09-03T11:32:13.105Z,40.11
2017-09-03T11:33:12.935Z,40.01
2017-09-03T11:34:12.836Z,40.01
2017-09-03T11:35:13.274Z,40.31
2017-09-03T11:36:12.977Z,40.11
2017-09-03T11:37:12.986Z,40.03
2017-09-03T11:38:13.002Z,39.74
2017-09-03T11:39:13.280Z,39.55
2017-09-03T11:40:13.300Z,39.36
2017-09-03T11:41:13.376Z,38.87
2017-09-03T11:42:13.354Z,38.87
2017-09-03T11:43:13.054Z,38.68
2017-09-03T11:44:13.383Z,38.48
2017-09-03T11:45:13.068Z,38.58
2017-09-03T11:46:13.371Z,38.87
2017-09-03T11:47:13.074Z,38.58
2017-09-03T11:48:13.102Z,38.78
2017-09-03T11:49:13.451Z,38.7
2017-09-03T11:50:13.473Z,38.12
2017-09-03T11:51:13.262Z,38.09
2017-09-03T11:52:13.526Z,38.09
2017-09-03T11:53:13.552Z,38.12
2017-09-03T11:54:13.581Z,37.73
2017-09-03T11:55:13.277Z,38.5
2017-09-03T11:56:13.634Z,38.7
2017-09-03T11:57:13.675Z,38.89
2017-09-03T11:58:13.678Z,38.99
2017-09-03T11:59:13.382Z,38.91
2017-09-03T12:00:13.730Z,38.52
2017-09-03T12:01:13.430Z,38.04
2017-09-03T12:02:13.782Z,38.04
2017-09-03T12:03:13.808Z,37.55
2017-09-03T12:04:13.513Z,37.16
2017-09-03T12:05:13.859Z,36.68
2017-09-03T12:06:13.889Z,36.87
2017-09-03T12:07:13.592Z,36.97
2017-09-03T12:08:13.934Z,36.77
2017-09-03T12:09:13.637Z,36.69
2017-09-03T12:10:13.989Z,36.99
2017-09-03T12:11:13.698Z,37.08
2017-09-03T12:12:14.040Z,37.08
2017-09-03T12:13:14.065Z,36.99
2017-09-03T12:14:13.767Z,37.08
2017-09-03T12:15:14.120Z,37.08
2017-09-03T12:16:14.143Z,37.1
2017-09-03T12:17:14.174Z,36.79
2017-09-03T12:18:14.197Z,36.81
2017-09-03T12:19:13.903Z,36.81
2017-09-03T12:20:14.271Z,36.32
2017-09-03T12:21:13.950Z,36.32
2017-09-03T12:22:14.301Z,35.94
2017-09-03T12:23:14.330Z,35.94
2017-09-03T12:24:14.353Z,35.64
2017-09-03T12:25:14.389Z,35.64
2017-09-03T12:26:14.410Z,36.04
2017-09-03T12:27:14.109Z,35.55
2017-09-03T12:28:14.136Z,36.22
2017-09-03T12:29:14.163Z,35.84
2017-09-03T12:30:14.189Z,35.84
2017-09-03T12:31:14.538Z,35.94
2017-09-03T12:32:14.566Z,35.94
2017-09-03T12:33:14.270Z,36.22
2017-09-03T12:34:14.294Z,35.84
2017-09-03T12:35:14.644Z,35.94
2017-09-03T12:36:14.677Z,35.55
2017-09-03T12:37:14.701Z,35.55
2017-09-03T12:38:14.726Z,35.74
2017-09-03T12:39:14.750Z,35.45
2017-09-03T12:40:14.453Z,35.64
2017-09-03T12:41:14.805Z,35.64
2017-09-03T12:42:14.834Z,35.86
2017-09-03T12:43:14.857Z,35.86
2017-09-03T12:44:14.892Z,35.66
2017-09-03T12:45:14.588Z,35.08
2017-09-03T12:46:14.936Z,35.37
2017-09-03T12:47:14.639Z,34.98
2017-09-03T12:48:14.991Z,34.79
2017-09-03T12:49:15.019Z,34.88
2017-09-03T12:50:15.045Z,34.79
2017-09-03T12:51:15.071Z,34.69
2017-09-03T12:52:15.100Z,34.98
2017-09-03T12:53:14.803Z,35.17
2017-09-03T12:54:14.826Z,34.52
2017-09-03T12:55:15.179Z,34.8
2017-09-03T12:56:15.209Z,34.22